sensor_id;sensor_type;location;lat;lon;timestamp;P1;durP1;ratioP1;P2;durP2;ratioP2
45039;SDS011;30778;53.574;7.770;2023-08-20T00:01:22;4.00;;;2.10;;
45039;SDS011;30778;53.574;7.770;2023-08-20T00:03:50;5.18;;;3.20;;
45039;SDS011;30778;53.574;7.770;2023-08-20T00:06:16;4.70;;;3.10;;
45039;SDS011;30778;53.574;7.770;2023-08-20T00:08:42;5.00;;;2.80;;
45039;SDS011;30778;53.574;7.770;2023-08-20T00:11:08;4.88;;;3.13;;
45039;SDS011;30778;53.574;7.770;2023-08-20T00:13:35;4.93;;;3.30;;
45039;SDS011;30778;53.574;7.770;2023-08-20T00:16:00;7.28;;;2.97;;
45039;SDS011;30778;53.574;7.770;2023-08-20T00:18:27;4.53;;;3.15;;
45039;SDS011;30778;53.574;7.770;2023-08-20T00:20:53;3.38;;;2.83;;
45039;SDS011;30778;53.574;7.770;2023-08-20T00:23:19;7.70;;;3.00;;
45039;SDS011;30778;53.574;7.770;2023-08-20T00:25:44;9.80;;;3.40;;
45039;SDS011;30778;53.574;7.770;2023-08-20T00:28:10;6.78;;;4.18;;
45039;SDS011;30778;53.574;7.770;2023-08-20T00:30:36;4.38;;;2.83;;
45039;SDS011;30778;53.574;7.770;2023-08-20T00:33:01;7.13;;;3.05;;
45039;SDS011;30778;53.574;7.770;2023-08-20T00:35:29;6.90;;;3.28;;
45039;SDS011;30778;53.574;7.770;2023-08-20T00:37:55;4.30;;;2.03;;
45039;SDS011;30778;53.574;7.770;2023-08-20T00:40:20;9.15;;;3.75;;
45039;SDS011;30778;53.574;7.770;2023-08-20T00:42:46;9.35;;;3.58;;
45039;SDS011;30778;53.574;7.770;2023-08-20T00:45:11;4.15;;;2.85;;
45039;SDS011;30778;53.574;7.770;2023-08-20T00:47:37;3.75;;;2.35;;
45039;SDS011;30778;53.574;7.770;2023-08-20T00:50:05;3.90;;;2.92;;
45039;SDS011;30778;53.574;7.770;2023-08-20T00:52:34;3.00;;;2.17;;
45039;SDS011;30778;53.574;7.770;2023-08-20T00:55:03;6.97;;;2.83;;
45039;SDS011;30778;53.574;7.770;2023-08-20T00:57:34;5.47;;;2.58;;
45039;SDS011;30778;53.574;7.770;2023-08-20T00:59:59;6.53;;;2.75;;
45039;SDS011;30778;53.574;7.770;2023-08-20T01:02:27;2.70;;;2.00;;
45039;SDS011;30778;53.574;7.770;2023-08-20T01:04:53;5.72;;;3.15;;
45039;SDS011;30778;53.574;7.770;2023-08-20T01:07:28;3.67;;;2.58;;
45039;SDS011;30778;53.574;7.770;2023-08-20T01:10:04;3.17;;;2.10;;
45039;SDS011;30778;53.574;7.770;2023-08-20T01:12:45;3.63;;;2.28;;
45039;SDS011;30778;53.574;7.770;2023-08-20T01:15:12;4.55;;;2.60;;
45039;SDS011;30778;53.574;7.770;2023-08-20T01:17:39;3.78;;;2.50;;
45039;SDS011;30778;53.574;7.770;2023-08-20T01:20:06;2.33;;;1.95;;
45039;SDS011;30778;53.574;7.770;2023-08-20T01:22:41;2.97;;;2.22;;
45039;SDS011;30778;53.574;7.770;2023-08-20T01:30:49;2.92;;;2.15;;
45039;SDS011;30778;53.574;7.770;2023-08-20T01:33:14;8.52;;;2.75;;
45039;SDS011;30778;53.574;7.770;2023-08-20T01:35:41;4.38;;;2.25;;
45039;SDS011;30778;53.574;7.770;2023-08-20T01:38:14;5.50;;;2.50;;
45039;SDS011;30778;53.574;7.770;2023-08-20T01:40:39;4.40;;;1.63;;
45039;SDS011;30778;53.574;7.770;2023-08-20T01:43:05;3.28;;;2.33;;
45039;SDS011;30778;53.574;7.770;2023-08-20T01:45:30;6.03;;;3.45;;
45039;SDS011;30778;53.574;7.770;2023-08-20T01:47:55;6.20;;;2.70;;
45039;SDS011;30778;53.574;7.770;2023-08-20T01:50:21;3.70;;;2.80;;
45039;SDS011;30778;53.574;7.770;2023-08-20T01:52:46;9.88;;;2.72;;
45039;SDS011;30778;53.574;7.770;2023-08-20T01:55:12;2.60;;;1.85;;
45039;SDS011;30778;53.574;7.770;2023-08-20T01:57:38;3.72;;;2.72;;
45039;SDS011;30778;53.574;7.770;2023-08-20T02:00:04;9.48;;;3.50;;
45039;SDS011;30778;53.574;7.770;2023-08-20T02:02:39;7.40;;;3.20;;
45039;SDS011;30778;53.574;7.770;2023-08-20T02:05:04;3.13;;;1.98;;
45039;SDS011;30778;53.574;7.770;2023-08-20T02:07:30;3.47;;;2.40;;
45039;SDS011;30778;53.574;7.770;2023-08-20T02:09:55;3.13;;;2.22;;
45039;SDS011;30778;53.574;7.770;2023-08-20T02:12:21;5.65;;;2.58;;
45039;SDS011;30778;53.574;7.770;2023-08-20T02:14:47;5.97;;;2.50;;
45039;SDS011;30778;53.574;7.770;2023-08-20T02:17:13;5.28;;;3.22;;
45039;SDS011;30778;53.574;7.770;2023-08-20T02:19:39;6.03;;;2.40;;
45039;SDS011;30778;53.574;7.770;2023-08-20T02:22:04;7.60;;;3.25;;
45039;SDS011;30778;53.574;7.770;2023-08-20T02:24:31;4.10;;;2.70;;
45039;SDS011;30778;53.574;7.770;2023-08-20T02:26:56;8.73;;;3.33;;
45039;SDS011;30778;53.574;7.770;2023-08-20T02:29:22;4.10;;;2.97;;
45039;SDS011;30778;53.574;7.770;2023-08-20T02:31:48;7.18;;;2.67;;
45039;SDS011;30778;53.574;7.770;2023-08-20T02:34:15;7.95;;;3.10;;
45039;SDS011;30778;53.574;7.770;2023-08-20T02:36:41;4.35;;;2.30;;
45039;SDS011;30778;53.574;7.770;2023-08-20T02:39:07;4.28;;;3.10;;
45039;SDS011;30778;53.574;7.770;2023-08-20T02:41:34;5.43;;;3.63;;
45039;SDS011;30778;53.574;7.770;2023-08-20T02:44:03;4.38;;;2.92;;
45039;SDS011;30778;53.574;7.770;2023-08-20T02:46:29;6.15;;;3.80;;
45039;SDS011;30778;53.574;7.770;2023-08-20T02:48:56;5.45;;;2.70;;
45039;SDS011;30778;53.574;7.770;2023-08-20T02:51:22;3.13;;;2.53;;
45039;SDS011;30778;53.574;7.770;2023-08-20T02:53:48;7.90;;;3.08;;
45039;SDS011;30778;53.574;7.770;2023-08-20T02:56:13;4.78;;;2.92;;
45039;SDS011;30778;53.574;7.770;2023-08-20T02:58:39;5.97;;;2.85;;
45039;SDS011;30778;53.574;7.770;2023-08-20T03:01:05;4.03;;;2.17;;
45039;SDS011;30778;53.574;7.770;2023-08-20T03:03:30;4.85;;;2.78;;
45039;SDS011;30778;53.574;7.770;2023-08-20T03:05:56;8.55;;;3.20;;
45039;SDS011;30778;53.574;7.770;2023-08-20T03:08:21;6.55;;;3.45;;
45039;SDS011;30778;53.574;7.770;2023-08-20T03:10:47;5.55;;;3.35;;
45039;SDS011;30778;53.574;7.770;2023-08-20T03:13:12;7.25;;;3.33;;
45039;SDS011;30778;53.574;7.770;2023-08-20T03:15:39;5.30;;;2.90;;
45039;SDS011;30778;53.574;7.770;2023-08-20T03:18:07;5.57;;;3.30;;
45039;SDS011;30778;53.574;7.770;2023-08-20T03:20:32;7.75;;;3.28;;
45039;SDS011;30778;53.574;7.770;2023-08-20T03:22:58;4.15;;;2.50;;
45039;SDS011;30778;53.574;7.770;2023-08-20T03:25:23;4.25;;;3.00;;
45039;SDS011;30778;53.574;7.770;2023-08-20T03:27:49;4.28;;;3.13;;
45039;SDS011;30778;53.574;7.770;2023-08-20T03:30:17;6.10;;;2.92;;
45039;SDS011;30778;53.574;7.770;2023-08-20T03:32:44;4.55;;;2.75;;
45039;SDS011;30778;53.574;7.770;2023-08-20T03:35:09;11.57;;;3.90;;
45039;SDS011;30778;53.574;7.770;2023-08-20T03:37:36;5.55;;;3.25;;
45039;SDS011;30778;53.574;7.770;2023-08-20T03:40:02;4.95;;;3.20;;
45039;SDS011;30778;53.574;7.770;2023-08-20T03:42:30;7.80;;;3.95;;
45039;SDS011;30778;53.574;7.770;2023-08-20T03:44:55;4.60;;;3.70;;
45039;SDS011;30778;53.574;7.770;2023-08-20T03:47:21;9.55;;;2.53;;
45039;SDS011;30778;53.574;7.770;2023-08-20T03:49:47;5.60;;;3.10;;
45039;SDS011;30778;53.574;7.770;2023-08-20T03:52:13;7.90;;;2.85;;
45039;SDS011;30778;53.574;7.770;2023-08-20T03:54:39;5.43;;;2.40;;
45039;SDS011;30778;53.574;7.770;2023-08-20T03:57:05;4.90;;;2.90;;
45039;SDS011;30778;53.574;7.770;2023-08-20T03:59:30;7.13;;;2.75;;
45039;SDS011;30778;53.574;7.770;2023-08-20T04:01:56;3.90;;;2.58;;
45039;SDS011;30778;53.574;7.770;2023-08-20T04:04:22;2.83;;;1.83;;
45039;SDS011;30778;53.574;7.770;2023-08-20T04:06:47;4.68;;;2.47;;
45039;SDS011;30778;53.574;7.770;2023-08-20T04:09:13;10.35;;;2.50;;
45039;SDS011;30778;53.574;7.770;2023-08-20T04:11:38;7.68;;;3.08;;
45039;SDS011;30778;53.574;7.770;2023-08-20T04:14:04;3.30;;;3.00;;
45039;SDS011;30778;53.574;7.770;2023-08-20T04:16:30;5.55;;;2.70;;
45039;SDS011;30778;53.574;7.770;2023-08-20T04:18:55;4.53;;;2.00;;
45039;SDS011;30778;53.574;7.770;2023-08-20T04:21:21;4.10;;;2.08;;
45039;SDS011;30778;53.574;7.770;2023-08-20T04:23:47;6.95;;;2.33;;
45039;SDS011;30778;53.574;7.770;2023-08-20T04:26:13;7.65;;;3.40;;
45039;SDS011;30778;53.574;7.770;2023-08-20T04:28:38;4.10;;;3.17;;
45039;SDS011;30778;53.574;7.770;2023-08-20T04:31:04;4.63;;;2.80;;
45039;SDS011;30778;53.574;7.770;2023-08-20T04:33:44;9.20;;;3.38;;
45039;SDS011;30778;53.574;7.770;2023-08-20T04:36:13;5.28;;;2.85;;
45039;SDS011;30778;53.574;7.770;2023-08-20T04:38:38;5.72;;;2.83;;
45039;SDS011;30778;53.574;7.770;2023-08-20T04:41:04;5.28;;;3.10;;
45039;SDS011;30778;53.574;7.770;2023-08-20T04:43:31;5.97;;;3.33;;
45039;SDS011;30778;53.574;7.770;2023-08-20T04:45:58;6.15;;;3.63;;
45039;SDS011;30778;53.574;7.770;2023-08-20T04:48:24;8.95;;;2.90;;
45039;SDS011;30778;53.574;7.770;2023-08-20T04:50:50;4.03;;;2.35;;
45039;SDS011;30778;53.574;7.770;2023-08-20T04:53:17;6.20;;;2.60;;
45039;SDS011;30778;53.574;7.770;2023-08-20T04:55:45;7.40;;;3.90;;
45039;SDS011;30778;53.574;7.770;2023-08-20T04:58:11;4.82;;;3.20;;
45039;SDS011;30778;53.574;7.770;2023-08-20T05:00:36;6.90;;;3.30;;
45039;SDS011;30778;53.574;7.770;2023-08-20T05:03:08;9.23;;;4.28;;
45039;SDS011;30778;53.574;7.770;2023-08-20T05:05:34;5.75;;;2.17;;
45039;SDS011;30778;53.574;7.770;2023-08-20T05:08:00;7.80;;;3.17;;
45039;SDS011;30778;53.574;7.770;2023-08-20T05:10:26;6.20;;;3.00;;
45039;SDS011;30778;53.574;7.770;2023-08-20T05:12:52;13.65;;;3.58;;
45039;SDS011;30778;53.574;7.770;2023-08-20T05:15:17;4.90;;;3.42;;
45039;SDS011;30778;53.574;7.770;2023-08-20T05:17:44;8.82;;;3.22;;
45039;SDS011;30778;53.574;7.770;2023-08-20T05:20:09;6.88;;;3.08;;
45039;SDS011;30778;53.574;7.770;2023-08-20T05:22:35;7.55;;;3.08;;
45039;SDS011;30778;53.574;7.770;2023-08-20T05:25:01;7.72;;;2.75;;
45039;SDS011;30778;53.574;7.770;2023-08-20T05:27:27;3.83;;;2.63;;
45039;SDS011;30778;53.574;7.770;2023-08-20T05:29:56;5.60;;;2.38;;
45039;SDS011;30778;53.574;7.770;2023-08-20T05:32:21;8.68;;;3.15;;
45039;SDS011;30778;53.574;7.770;2023-08-20T05:34:47;10.40;;;2.33;;
45039;SDS011;30778;53.574;7.770;2023-08-20T05:37:12;5.35;;;2.47;;
45039;SDS011;30778;53.574;7.770;2023-08-20T05:39:40;6.88;;;2.40;;
45039;SDS011;30778;53.574;7.770;2023-08-20T05:42:07;6.38;;;2.22;;
45039;SDS011;30778;53.574;7.770;2023-08-20T05:44:33;5.13;;;1.60;;
45039;SDS011;30778;53.574;7.770;2023-08-20T05:47:00;8.93;;;2.13;;
45039;SDS011;30778;53.574;7.770;2023-08-20T05:49:26;10.23;;;2.13;;
45039;SDS011;30778;53.574;7.770;2023-08-20T05:51:52;6.93;;;1.58;;
45039;SDS011;30778;53.574;7.770;2023-08-20T05:54:18;5.38;;;1.77;;
45039;SDS011;30778;53.574;7.770;2023-08-20T05:56:44;5.43;;;1.70;;
45039;SDS011;30778;53.574;7.770;2023-08-20T05:59:10;4.72;;;1.67;;
45039;SDS011;30778;53.574;7.770;2023-08-20T06:01:36;3.85;;;1.52;;
45039;SDS011;30778;53.574;7.770;2023-08-20T06:04:04;3.88;;;1.63;;
45039;SDS011;30778;53.574;7.770;2023-08-20T06:06:30;8.68;;;1.73;;
45039;SDS011;30778;53.574;7.770;2023-08-20T06:08:55;2.90;;;0.82;;
45039;SDS011;30778;53.574;7.770;2023-08-20T06:11:21;2.90;;;1.17;;
45039;SDS011;30778;53.574;7.770;2023-08-20T06:13:46;4.80;;;2.08;;
45039;SDS011;30778;53.574;7.770;2023-08-20T06:16:12;5.80;;;1.55;;
45039;SDS011;30778;53.574;7.770;2023-08-20T06:18:38;4.30;;;2.00;;
45039;SDS011;30778;53.574;7.770;2023-08-20T06:21:04;5.32;;;1.55;;
45039;SDS011;30778;53.574;7.770;2023-08-20T06:23:29;5.57;;;2.40;;
45039;SDS011;30778;53.574;7.770;2023-08-20T06:25:55;11.00;;;2.45;;
45039;SDS011;30778;53.574;7.770;2023-08-20T06:28:20;7.40;;;1.80;;
45039;SDS011;30778;53.574;7.770;2023-08-20T06:30:46;4.60;;;2.08;;
45039;SDS011;30778;53.574;7.770;2023-08-20T06:33:11;5.35;;;2.53;;
45039;SDS011;30778;53.574;7.770;2023-08-20T06:35:38;4.88;;;2.40;;
45039;SDS011;30778;53.574;7.770;2023-08-20T06:38:04;4.20;;;1.67;;
45039;SDS011;30778;53.574;7.770;2023-08-20T06:40:29;6.22;;;2.05;;
45039;SDS011;30778;53.574;7.770;2023-08-20T06:42:56;7.72;;;2.38;;
45039;SDS011;30778;53.574;7.770;2023-08-20T06:45:21;4.95;;;2.15;;
45039;SDS011;30778;53.574;7.770;2023-08-20T06:47:47;4.85;;;2.95;;
45039;SDS011;30778;53.574;7.770;2023-08-20T06:50:12;7.47;;;2.10;;
45039;SDS011;30778;53.574;7.770;2023-08-20T06:52:38;4.40;;;2.10;;
45039;SDS011;30778;53.574;7.770;2023-08-20T06:55:03;7.07;;;1.70;;
45039;SDS011;30778;53.574;7.770;2023-08-20T06:57:29;8.23;;;2.17;;
45039;SDS011;30778;53.574;7.770;2023-08-20T06:59:55;4.10;;;1.10;;
45039;SDS011;30778;53.574;7.770;2023-08-20T07:02:20;7.75;;;1.83;;
45039;SDS011;30778;53.574;7.770;2023-08-20T07:04:46;8.23;;;2.13;;
45039;SDS011;30778;53.574;7.770;2023-08-20T07:07:12;8.77;;;2.42;;
45039;SDS011;30778;53.574;7.770;2023-08-20T07:09:38;5.88;;;2.17;;
45039;SDS011;30778;53.574;7.770;2023-08-20T07:12:04;5.55;;;2.05;;
45039;SDS011;30778;53.574;7.770;2023-08-20T07:14:30;7.80;;;2.13;;
45039;SDS011;30778;53.574;7.770;2023-08-20T07:16:56;5.35;;;2.45;;
45039;SDS011;30778;53.574;7.770;2023-08-20T07:19:21;8.70;;;1.77;;
45039;SDS011;30778;53.574;7.770;2023-08-20T07:21:46;8.05;;;2.13;;
45039;SDS011;30778;53.574;7.770;2023-08-20T07:24:12;8.68;;;1.77;;
45039;SDS011;30778;53.574;7.770;2023-08-20T07:26:37;3.45;;;1.42;;
45039;SDS011;30778;53.574;7.770;2023-08-20T07:29:03;8.38;;;2.13;;
45039;SDS011;30778;53.574;7.770;2023-08-20T07:31:29;3.45;;;1.90;;
45039;SDS011;30778;53.574;7.770;2023-08-20T07:33:57;15.13;;;2.50;;
45039;SDS011;30778;53.574;7.770;2023-08-20T07:36:26;5.65;;;1.77;;
45039;SDS011;30778;53.574;7.770;2023-08-20T07:38:53;7.70;;;2.58;;
45039;SDS011;30778;53.574;7.770;2023-08-20T07:41:19;7.40;;;1.65;;
45039;SDS011;30778;53.574;7.770;2023-08-20T07:43:46;5.47;;;1.52;;
45039;SDS011;30778;53.574;7.770;2023-08-20T07:46:13;8.20;;;1.88;;
45039;SDS011;30778;53.574;7.770;2023-08-20T07:48:39;6.10;;;1.63;;
45039;SDS011;30778;53.574;7.770;2023-08-20T07:51:05;4.03;;;1.20;;
45039;SDS011;30778;53.574;7.770;2023-08-20T07:53:31;5.60;;;1.48;;
45039;SDS011;30778;53.574;7.770;2023-08-20T07:55:59;5.82;;;1.33;;
45039;SDS011;30778;53.574;7.770;2023-08-20T07:58:25;8.20;;;1.35;;
45039;SDS011;30778;53.574;7.770;2023-08-20T08:00:51;8.15;;;1.35;;
45039;SDS011;30778;53.574;7.770;2023-08-20T08:03:16;3.45;;;0.90;;
45039;SDS011;30778;53.574;7.770;2023-08-20T08:05:48;4.47;;;0.90;;
45039;SDS011;30778;53.574;7.770;2023-08-20T08:08:18;4.20;;;1.00;;
45039;SDS011;30778;53.574;7.770;2023-08-20T08:10:44;5.93;;;1.33;;
45039;SDS011;30778;53.574;7.770;2023-08-20T08:13:11;3.30;;;0.68;;
45039;SDS011;30778;53.574;7.770;2023-08-20T08:15:43;7.75;;;0.70;;
45039;SDS011;30778;53.574;7.770;2023-08-20T08:18:09;3.58;;;0.50;;
45039;SDS011;30778;53.574;7.770;2023-08-20T08:20:35;2.72;;;1.00;;
45039;SDS011;30778;53.574;7.770;2023-08-20T08:23:00;7.50;;;1.27;;
45039;SDS011;30778;53.574;7.770;2023-08-20T08:25:26;6.25;;;1.00;;
45039;SDS011;30778;53.574;7.770;2023-08-20T08:27:52;4.88;;;0.90;;
45039;SDS011;30778;53.574;7.770;2023-08-20T08:30:17;6.63;;;1.27;;
45039;SDS011;30778;53.574;7.770;2023-08-20T08:32:43;2.63;;;0.45;;
45039;SDS011;30778;53.574;7.770;2023-08-20T08:35:08;4.28;;;0.57;;
45039;SDS011;30778;53.574;7.770;2023-08-20T08:37:34;5.07;;;0.50;;
45039;SDS011;30778;53.574;7.770;2023-08-20T08:39:59;3.83;;;0.60;;
45039;SDS011;30778;53.574;7.770;2023-08-20T08:42:25;3.65;;;0.38;;
45039;SDS011;30778;53.574;7.770;2023-08-20T08:44:50;7.68;;;0.45;;
45039;SDS011;30778;53.574;7.770;2023-08-20T08:47:17;6.40;;;0.40;;
45039;SDS011;30778;53.574;7.770;2023-08-20T08:49:43;6.60;;;0.68;;
45039;SDS011;30778;53.574;7.770;2023-08-20T08:52:11;5.50;;;0.60;;
45039;SDS011;30778;53.574;7.770;2023-08-20T08:54:37;4.57;;;0.63;;
45039;SDS011;30778;53.574;7.770;2023-08-20T08:57:02;4.38;;;0.57;;
45039;SDS011;30778;53.574;7.770;2023-08-20T08:59:28;7.25;;;0.60;;
45039;SDS011;30778;53.574;7.770;2023-08-20T09:01:53;5.47;;;0.73;;
45039;SDS011;30778;53.574;7.770;2023-08-20T09:04:22;5.45;;;0.50;;
45039;SDS011;30778;53.574;7.770;2023-08-20T09:06:48;4.22;;;0.93;;
45039;SDS011;30778;53.574;7.770;2023-08-20T09:09:17;3.50;;;0.30;;
45039;SDS011;30778;53.574;7.770;2023-08-20T09:11:44;4.85;;;0.80;;
45039;SDS011;30778;53.574;7.770;2023-08-20T09:14:20;7.18;;;0.50;;
45039;SDS011;30778;53.574;7.770;2023-08-20T09:16:59;3.88;;;0.60;;
45039;SDS011;30778;53.574;7.770;2023-08-20T09:19:30;2.65;;;0.38;;
45039;SDS011;30778;53.574;7.770;2023-08-20T09:22:01;5.18;;;0.50;;
45039;SDS011;30778;53.574;7.770;2023-08-20T09:25:15;7.55;;;3.10;;
45039;SDS011;30778;53.574;7.770;2023-08-20T09:27:25;5.95;;;0.30;;
45039;SDS011;30778;53.574;7.770;2023-08-20T09:29:51;5.22;;;0.85;;
45039;SDS011;30778;53.574;7.770;2023-08-20T09:32:21;3.70;;;0.40;;
45039;SDS011;30778;53.574;7.770;2023-08-20T09:34:49;5.05;;;0.80;;
45039;SDS011;30778;53.574;7.770;2023-08-20T09:37:17;4.28;;;0.50;;
45039;SDS011;30778;53.574;7.770;2023-08-20T09:39:47;3.10;;;0.65;;
45039;SDS011;30778;53.574;7.770;2023-08-20T09:42:13;2.00;;;0.43;;
45039;SDS011;30778;53.574;7.770;2023-08-20T09:44:39;4.47;;;0.82;;
45039;SDS011;30778;53.574;7.770;2023-08-20T09:47:07;3.05;;;0.77;;
45039;SDS011;30778;53.574;7.770;2023-08-20T09:49:37;2.95;;;0.40;;
45039;SDS011;30778;53.574;7.770;2023-08-20T09:52:08;4.65;;;0.50;;
45039;SDS011;30778;53.574;7.770;2023-08-20T10:00:08;2.35;;;0.40;;
45039;SDS011;30778;53.574;7.770;2023-08-20T10:02:41;3.95;;;0.30;;
45039;SDS011;30778;53.574;7.770;2023-08-20T10:05:08;4.22;;;0.47;;
45039;SDS011;30778;53.574;7.770;2023-08-20T10:07:35;5.45;;;0.82;;
45039;SDS011;30778;53.574;7.770;2023-08-20T10:10:03;3.72;;;0.30;;
45039;SDS011;30778;53.574;7.770;2023-08-20T10:12:30;4.05;;;0.20;;
45039;SDS011;30778;53.574;7.770;2023-08-20T10:14:57;2.90;;;0.57;;
45039;SDS011;30778;53.574;7.770;2023-08-20T10:17:23;4.22;;;0.60;;
45039;SDS011;30778;53.574;7.770;2023-08-20T10:19:52;4.00;;;0.25;;
45039;SDS011;30778;53.574;7.770;2023-08-20T10:22:19;2.20;;;0.52;;
45039;SDS011;30778;53.574;7.770;2023-08-20T10:27:27;3.85;;;0.75;;
45039;SDS011;30778;53.574;7.770;2023-08-20T10:29:56;2.90;;;0.65;;
45039;SDS011;30778;53.574;7.770;2023-08-20T10:35:09;4.15;;;0.50;;
45039;SDS011;30778;53.574;7.770;2023-08-20T10:37:35;4.05;;;0.55;;
45039;SDS011;30778;53.574;7.770;2023-08-20T10:40:02;2.25;;;0.47;;
45039;SDS011;30778;53.574;7.770;2023-08-20T10:42:29;2.22;;;0.35;;
45039;SDS011;30778;53.574;7.770;2023-08-20T10:47:42;1.70;;;0.43;;
45039;SDS011;30778;53.574;7.770;2023-08-20T10:50:15;6.93;;;0.20;;
45039;SDS011;30778;53.574;7.770;2023-08-20T10:52:46;3.53;;;0.63;;
45039;SDS011;30778;53.574;7.770;2023-08-20T10:57:40;4.32;;;0.45;;
45039;SDS011;30778;53.574;7.770;2023-08-20T11:00:06;2.05;;;0.30;;
45039;SDS011;30778;53.574;7.770;2023-08-20T11:02:36;1.13;;;0.20;;
45039;SDS011;30778;53.574;7.770;2023-08-20T11:05:04;2.60;;;0.47;;
45039;SDS011;30778;53.574;7.770;2023-08-20T11:07:30;2.50;;;0.40;;
45039;SDS011;30778;53.574;7.770;2023-08-20T11:09:57;3.00;;;0.45;;
45039;SDS011;30778;53.574;7.770;2023-08-20T11:12:23;4.20;;;0.20;;
45039;SDS011;30778;53.574;7.770;2023-08-20T11:14:48;4.95;;;0.40;;
45039;SDS011;30778;53.574;7.770;2023-08-20T11:17:14;3.80;;;0.55;;
45039;SDS011;30778;53.574;7.770;2023-08-20T11:19:40;2.53;;;0.13;;
45039;SDS011;30778;53.574;7.770;2023-08-20T11:22:05;1.88;;;0.20;;
45039;SDS011;30778;53.574;7.770;2023-08-20T11:24:31;2.75;;;0.30;;
45039;SDS011;30778;53.574;7.770;2023-08-20T11:26:57;3.35;;;0.20;;
45039;SDS011;30778;53.574;7.770;2023-08-20T11:29:22;2.97;;;0.20;;
45039;SDS011;30778;53.574;7.770;2023-08-20T11:31:51;2.80;;;0.17;;
45039;SDS011;30778;53.574;7.770;2023-08-20T11:34:20;1.17;;;0.20;;
45039;SDS011;30778;53.574;7.770;2023-08-20T11:36:46;2.88;;;0.30;;
45039;SDS011;30778;53.574;7.770;2023-08-20T11:39:11;2.50;;;0.57;;
45039;SDS011;30778;53.574;7.770;2023-08-20T11:41:38;1.27;;;0.43;;
45039;SDS011;30778;53.574;7.770;2023-08-20T11:44:05;1.50;;;0.10;;
45039;SDS011;30778;53.574;7.770;2023-08-20T11:46:31;2.33;;;0.20;;
45039;SDS011;30778;53.574;7.770;2023-08-20T11:51:42;2.75;;;0.40;;
45039;SDS011;30778;53.574;7.770;2023-08-20T11:54:13;1.20;;;0.20;;
45039;SDS011;30778;53.574;7.770;2023-08-20T11:56:43;6.40;;;0.20;;
45039;SDS011;30778;53.574;7.770;2023-08-20T11:59:11;1.58;;;0.10;;
45039;SDS011;30778;53.574;7.770;2023-08-20T12:01:37;2.95;;;0.20;;
45039;SDS011;30778;53.574;7.770;2023-08-20T12:04:03;3.90;;;0.20;;
45039;SDS011;30778;53.574;7.770;2023-08-20T12:06:30;3.08;;;0.20;;
45039;SDS011;30778;53.574;7.770;2023-08-20T12:08:57;1.42;;;0.13;;
45039;SDS011;30778;53.574;7.770;2023-08-20T12:11:23;1.90;;;0.17;;
45039;SDS011;30778;53.574;7.770;2023-08-20T12:13:53;3.33;;;0.30;;
45039;SDS011;30778;53.574;7.770;2023-08-20T12:16:21;2.25;;;0.28;;
45039;SDS011;30778;53.574;7.770;2023-08-20T12:18:48;2.35;;;0.20;;
45039;SDS011;30778;53.574;7.770;2023-08-20T12:21:14;3.60;;;0.50;;
45039;SDS011;30778;53.574;7.770;2023-08-20T12:23:43;2.55;;;0.20;;
45039;SDS011;30778;53.574;7.770;2023-08-20T12:26:09;5.00;;;0.20;;
45039;SDS011;30778;53.574;7.770;2023-08-20T12:28:34;2.20;;;0.20;;
45039;SDS011;30778;53.574;7.770;2023-08-20T12:31:00;2.20;;;0.30;;
45039;SDS011;30778;53.574;7.770;2023-08-20T12:33:26;3.25;;;0.25;;
45039;SDS011;30778;53.574;7.770;2023-08-20T12:35:56;1.45;;;0.10;;
45039;SDS011;30778;53.574;7.770;2023-08-20T12:38:24;1.80;;;0.20;;
45039;SDS011;30778;53.574;7.770;2023-08-20T12:40:50;2.55;;;0.10;;
45039;SDS011;30778;53.574;7.770;2023-08-20T12:43:16;2.03;;;0.13;;
45039;SDS011;30778;53.574;7.770;2023-08-20T12:45:41;3.72;;;0.30;;
45039;SDS011;30778;53.574;7.770;2023-08-20T12:48:07;0.75;;;0.10;;
45039;SDS011;30778;53.574;7.770;2023-08-20T12:50:33;3.25;;;0.30;;
45039;SDS011;30778;53.574;7.770;2023-08-20T12:52:58;4.57;;;0.40;;
45039;SDS011;30778;53.574;7.770;2023-08-20T12:55:24;4.43;;;0.43;;
45039;SDS011;30778;53.574;7.770;2023-08-20T12:57:53;6.57;;;0.82;;
45039;SDS011;30778;53.574;7.770;2023-08-20T13:00:21;4.97;;;0.50;;
45039;SDS011;30778;53.574;7.770;2023-08-20T13:02:53;9.10;;;1.63;;
45039;SDS011;30778;53.574;7.770;2023-08-20T13:05:20;3.58;;;0.73;;
45039;SDS011;30778;53.574;7.770;2023-08-20T13:07:47;8.77;;;1.20;;
45039;SDS011;30778;53.574;7.770;2023-08-20T13:10:12;8.43;;;1.00;;
45039;SDS011;30778;53.574;7.770;2023-08-20T13:12:41;9.60;;;1.73;;
45039;SDS011;30778;53.574;7.770;2023-08-20T13:15:07;8.40;;;1.10;;
45039;SDS011;30778;53.574;7.770;2023-08-20T13:17:35;8.45;;;1.25;;
45039;SDS011;30778;53.574;7.770;2023-08-20T13:20:01;9.48;;;1.08;;
45039;SDS011;30778;53.574;7.770;2023-08-20T13:22:26;10.15;;;0.73;;
45039;SDS011;30778;53.574;7.770;2023-08-20T13:24:51;13.73;;;1.52;;
45039;SDS011;30778;53.574;7.770;2023-08-20T13:27:17;9.93;;;1.00;;
45039;SDS011;30778;53.574;7.770;2023-08-20T13:29:43;7.00;;;0.57;;
45039;SDS011;30778;53.574;7.770;2023-08-20T13:32:08;8.05;;;1.10;;
45039;SDS011;30778;53.574;7.770;2023-08-20T13:34:34;9.77;;;1.23;;
45039;SDS011;30778;53.574;7.770;2023-08-20T13:36:59;10.38;;;0.77;;
45039;SDS011;30778;53.574;7.770;2023-08-20T13:39:24;8.10;;;0.85;;
45039;SDS011;30778;53.574;7.770;2023-08-20T13:41:50;12.68;;;1.35;;
45039;SDS011;30778;53.574;7.770;2023-08-20T13:44:16;6.78;;;0.70;;
45039;SDS011;30778;53.574;7.770;2023-08-20T13:46:41;5.50;;;0.80;;
45039;SDS011;30778;53.574;7.770;2023-08-20T13:49:07;7.55;;;1.00;;
45039;SDS011;30778;53.574;7.770;2023-08-20T13:51:32;7.00;;;0.85;;
45039;SDS011;30778;53.574;7.770;2023-08-20T13:53:58;8.48;;;0.90;;
45039;SDS011;30778;53.574;7.770;2023-08-20T13:56:23;6.30;;;0.70;;
45039;SDS011;30778;53.574;7.770;2023-08-20T13:58:51;7.38;;;0.80;;
45039;SDS011;30778;53.574;7.770;2023-08-20T14:01:17;6.15;;;0.80;;
45039;SDS011;30778;53.574;7.770;2023-08-20T14:03:43;9.45;;;0.98;;
45039;SDS011;30778;53.574;7.770;2023-08-20T14:06:08;5.03;;;1.20;;
45039;SDS011;30778;53.574;7.770;2023-08-20T14:08:34;7.00;;;0.82;;
45039;SDS011;30778;53.574;7.770;2023-08-20T14:10:59;6.15;;;1.30;;
45039;SDS011;30778;53.574;7.770;2023-08-20T14:13:25;6.45;;;1.13;;
45039;SDS011;30778;53.574;7.770;2023-08-20T14:15:53;7.07;;;0.95;;
45039;SDS011;30778;53.574;7.770;2023-08-20T14:18:18;5.35;;;0.70;;
45039;SDS011;30778;53.574;7.770;2023-08-20T14:20:44;10.45;;;1.17;;
45039;SDS011;30778;53.574;7.770;2023-08-20T14:23:09;5.00;;;0.57;;
45039;SDS011;30778;53.574;7.770;2023-08-20T14:25:35;9.10;;;1.40;;
45039;SDS011;30778;53.574;7.770;2023-08-20T14:28:01;9.82;;;1.30;;
45039;SDS011;30778;53.574;7.770;2023-08-20T14:30:26;5.60;;;0.98;;
45039;SDS011;30778;53.574;7.770;2023-08-20T14:32:52;10.65;;;0.93;;
45039;SDS011;30778;53.574;7.770;2023-08-20T14:35:18;8.13;;;0.70;;
45039;SDS011;30778;53.574;7.770;2023-08-20T14:37:44;5.75;;;0.60;;
45039;SDS011;30778;53.574;7.770;2023-08-20T14:40:10;4.07;;;1.23;;
45039;SDS011;30778;53.574;7.770;2023-08-20T14:42:36;12.00;;;1.20;;
45039;SDS011;30778;53.574;7.770;2023-08-20T14:45:01;8.77;;;1.58;;
45039;SDS011;30778;53.574;7.770;2023-08-20T14:47:29;10.65;;;0.70;;
45039;SDS011;30778;53.574;7.770;2023-08-20T14:49:55;7.88;;;0.70;;
45039;SDS011;30778;53.574;7.770;2023-08-20T14:52:20;9.93;;;1.00;;
45039;SDS011;30778;53.574;7.770;2023-08-20T14:54:46;4.30;;;1.10;;
45039;SDS011;30778;53.574;7.770;2023-08-20T14:57:11;9.27;;;0.80;;
45039;SDS011;30778;53.574;7.770;2023-08-20T14:59:37;7.25;;;0.73;;
45039;SDS011;30778;53.574;7.770;2023-08-20T15:02:02;8.82;;;1.27;;
45039;SDS011;30778;53.574;7.770;2023-08-20T15:04:27;8.02;;;1.35;;
45039;SDS011;30778;53.574;7.770;2023-08-20T15:06:53;10.00;;;1.20;;
45039;SDS011;30778;53.574;7.770;2023-08-20T15:09:18;6.07;;;0.85;;